Time;durP1;ratioP1;P1;durP2;ratioP2;P2;SDS_P1;SDS_P2;PMS_P1;PMS_P2;Temp;Humidity;BMP_temperature;BMP_pressure;BME280_temperature;BME280_humidity;BME280_pressure;Samples;Min_cycle;Max_cycle;Signal;HPM_P1;HPM_P2
2023/09/01 00:00:03;;;;;;;5.47;4.20;;;14.30;99.90;;;;;;5052494;28;20465;-82
2023/09/01 00:02:31;;;;;;;4.80;3.80;;;14.30;99.90;;;;;;5053071;28;20483;-81
2023/09/01 00:04:58;;;;;;;4.90;3.83;;;14.20;99.90;;;;;;5053829;28;20565;-82
2023/09/01 00:07:25;;;;;;;5.10;4.30;;;14.20;99.90;;;;;;5052812;28;20481;-82
2023/09/01 00:09:52;;;;;;;7.10;4.90;;;14.20;99.90;;;;;;5053365;28;20467;-82
2023/09/01 00:12:19;;;;;;;5.37;4.57;;;14.10;99.90;;;;;;5056588;28;21276;-79
2023/09/01 00:14:46;;;;;;;4.40;3.50;;;14.10;99.90;;;;;;5058187;28;20504;-83
2023/09/01 00:17:13;;;;;;;5.63;4.13;;;14.10;99.90;;;;;;5068693;28;20527;-81
2023/09/01 00:19:41;;;;;;;7.27;4.43;;;14.10;99.90;;;;;;5072462;28;20524;-80
2023/09/01 00:22:08;;;;;;;5.20;4.33;;;14.10;99.90;;;;;;5071834;28;20490;-82
2023/09/01 00:24:36;;;;;;;4.60;3.60;;;14.10;99.90;;;;;;5072471;28;20541;-80
2023/09/01 00:27:03;;;;;;;5.93;4.33;;;14.10;99.90;;;;;;5145931;22;20555;-81
2023/09/01 00:29:33;;;;;;;7.33;4.30;;;14.00;99.90;;;;;;5109612;28;20443;-81
2023/09/01 00:31:59;;;;;;;6.10;4.10;;;14.00;99.90;;;;;;5124298;28;20488;-80
2023/09/01 00:34:26;;;;;;;5.10;3.97;;;14.00;99.90;;;;;;5124550;28;20469;-80
2023/09/01 00:36:54;;;;;;;5.93;4.27;;;14.10;99.90;;;;;;5105096;28;20556;-79
2023/09/01 00:39:21;;;;;;;6.53;4.00;;;14.00;99.90;;;;;;5089399;28;20460;-80
2023/09/01 00:41:48;;;;;;;8.13;4.33;;;14.00;99.90;;;;;;5093634;28;20488;-80
2023/09/01 00:44:15;;;;;;;4.33;3.80;;;14.00;99.90;;;;;;5095835;28;20442;-81
2023/09/01 00:46:43;;;;;;;9.93;4.00;;;13.90;99.90;;;;;;5090617;28;20547;-79
2023/09/01 00:49:11;;;;;;;8.53;4.20;;;13.90;99.90;;;;;;5079810;28;20489;-80
2023/09/01 00:51:38;;;;;;;8.67;4.40;;;14.00;99.90;;;;;;5095582;28;20446;-79
2023/09/01 00:54:06;;;;;;;6.70;4.07;;;14.00;99.90;;;;;;5096162;28;20450;-80
2023/09/01 00:56:33;;;;;;;10.43;4.27;;;13.90;99.90;;;;;;5094074;28;20487;-80
2023/09/01 00:59:00;;;;;;;5.43;3.87;;;13.90;99.90;;;;;;5094837;28;20457;-80
2023/09/01 01:01:27;;;;;;;8.10;3.37;;;13.90;99.90;;;;;;5095751;28;20450;-80
2023/09/01 01:03:54;;;;;;;5.90;4.50;;;13.90;99.90;;;;;;5095382;28;20455;-79
2023/09/01 01:06:26;;;;;;;4.80;4.30;;;13.90;99.90;;;;;;5095301;28;21033;-79
2023/09/01 01:09:03;;;;;;;9.43;4.20;;;13.90;99.90;;;;;;5096404;28;20522;-80
2023/09/01 01:11:44;;;;;;;3.83;3.33;;;13.90;99.90;;;;;;5096796;28;20486;-79
2023/09/01 01:14:18;;;;;;;4.73;3.60;;;13.90;99.90;;;;;;5095855;28;20570;-80
2023/09/01 01:16:45;;;;;;;6.07;4.17;;;13.80;99.90;;;;;;5095110;28;20513;-79
2023/09/01 01:19:23;;;;;;;6.00;4.50;;;13.80;99.90;;;;;;5095582;28;20449;-80
2023/09/01 01:21:53;;;;;;;7.83;4.40;;;13.80;99.90;;;;;;5097492;28;20454;-79
2023/09/01 01:24:23;;;;;;;8.00;4.30;;;13.80;99.90;;;;;;5097585;28;21110;-80
2023/09/01 01:26:49;;;;;;;6.80;4.20;;;13.80;99.90;;;;;;5096768;28;20482;-81
2023/09/01 01:29:16;;;;;;;6.97;3.90;;;13.80;99.90;;;;;;5096620;28;20514;-80
2023/09/01 01:31:43;;;;;;;5.47;3.23;;;13.80;99.90;;;;;;5096753;28;20906;-78
2023/09/01 01:34:18;;;;;;;7.07;4.10;;;13.80;99.90;;;;;;5096042;28;20458;-81
2023/09/01 01:36:53;;;;;;;8.97;3.97;;;13.80;99.90;;;;;;5097922;28;20468;-81
2023/09/01 01:39:25;;;;;;;4.90;3.63;;;13.80;99.90;;;;;;5099714;28;20973;-81
2023/09/01 01:41:55;;;;;;;4.10;3.30;;;13.70;99.90;;;;;;5096776;28;20541;-80
2023/09/01 01:44:26;;;;;;;7.20;3.40;;;13.70;99.90;;;;;;5104001;28;20514;-80
2023/09/01 01:46:53;;;;;;;7.20;3.73;;;13.70;99.90;;;;;;5109135;28;20923;-80
2023/09/01 01:49:21;;;;;;;3.80;3.20;;;13.70;99.90;;;;;;5094870;28;20507;-81
2023/09/01 01:51:47;;;;;;;5.23;3.43;;;13.70;99.90;;;;;;5094718;28;21165;-79
2023/09/01 01:54:14;;;;;;;4.10;3.07;;;13.60;99.90;;;;;;5090581;28;20465;-81
2023/09/01 01:56:42;;;;;;;6.80;3.50;;;13.70;99.90;;;;;;5095694;28;20996;-79
2023/09/01 01:59:09;;;;;;;6.50;4.27;;;13.70;99.90;;;;;;5093410;28;20463;-80
2023/09/01 02:01:36;;;;;;;7.73;4.23;;;13.60;99.90;;;;;;5087691;28;20448;-81
2023/09/01 02:04:05;;;;;;;7.37;3.30;;;13.60;99.90;;;;;;5075527;28;20446;-80
2023/09/01 02:06:31;;;;;;;5.17;3.43;;;13.60;99.90;;;;;;5074227;28;20499;-80
2023/09/01 02:08:58;;;;;;;5.97;3.80;;;13.50;99.90;;;;;;5075302;28;20582;-78
2023/09/01 02:11:25;;;;;;;4.03;3.63;;;13.50;99.90;;;;;;5084955;28;20469;-81
2023/09/01 02:13:53;;;;;;;6.80;3.90;;;13.50;99.90;;;;;;5092178;28;20969;-78
2023/09/01 02:16:20;;;;;;;3.37;3.07;;;13.40;99.90;;;;;;5087592;28;20470;-80
2023/09/01 02:18:47;;;;;;;5.27;4.10;;;13.40;99.90;;;;;;5095209;28;20479;-79
2023/09/01 02:21:19;;;;;;;5.70;3.53;;;13.40;99.90;;;;;;5089262;28;20854;-80
2023/09/01 02:23:45;;;;;;;5.17;3.10;;;13.40;99.90;;;;;;5093667;28;20446;-80
2023/09/01 02:26:18;;;;;;;7.10;3.77;;;13.40;99.90;;;;;;5089988;28;21005;-81
2023/09/01 02:28:44;;;;;;;7.43;3.63;;;13.40;99.90;;;;;;5093653;28;20469;-81
2023/09/01 02:31:13;;;;;;;3.90;3.50;;;13.40;99.90;;;;;;5094648;28;20450;-81
2023/09/01 02:33:39;;;;;;;4.50;3.33;;;13.40;99.90;;;;;;5094571;28;20464;-81
2023/09/01 02:36:27;;;;;;;5.20;3.17;;;13.40;99.90;;;;;;5093704;28;20459;-81
2023/09/01 02:38:54;;;;;;;3.60;3.03;;;13.30;99.90;;;;;;5093973;28;20436;-80
2023/09/01 02:41:22;;;;;;;10.40;3.90;;;13.30;99.90;;;;;;5094190;28;20462;-81
2023/09/01 02:43:49;;;;;;;7.27;4.17;;;13.30;99.90;;;;;;5094267;28;20460;-81
2023/09/01 02:46:17;;;;;;;6.97;3.30;;;13.30;99.90;;;;;;5093814;28;20481;-81
2023/09/01 02:48:44;;;;;;;6.63;4.10;;;13.30;99.90;;;;;;5094046;28;20487;-80
2023/09/01 02:51:11;;;;;;;6.97;4.10;;;13.30;99.90;;;;;;5094275;28;20455;-81
2023/09/01 02:53:38;;;;;;;10.93;4.10;;;13.30;99.90;;;;;;5093647;28;20829;-80
2023/09/01 02:56:05;;;;;;;5.20;3.40;;;13.30;99.90;;;;;;5093177;28;20969;-80
2023/09/01 02:58:33;;;;;;;6.13;3.50;;;13.30;99.90;;;;;;5094365;28;20534;-81
2023/09/01 03:01:07;;;;;;;8.70;4.20;;;13.30;99.90;;;;;;5094114;28;20958;-79
2023/09/01 03:03:35;;;;;;;5.13;3.90;;;13.30;99.90;;;;;;5094511;28;20548;-81
2023/09/01 03:06:04;;;;;;;4.90;4.40;;;13.30;99.90;;;;;;5094345;28;20492;-81
2023/09/01 03:08:31;;;;;;;7.30;4.30;;;13.30;99.90;;;;;;5094901;28;20570;-81
2023/09/01 03:10:57;;;;;;;5.30;4.47;;;13.30;99.90;;;;;;5094812;28;20441;-81
2023/09/01 03:13:24;;;;;;;8.57;4.40;;;13.30;99.90;;;;;;5094402;28;20820;-80
2023/09/01 03:15:54;;;;;;;4.90;3.70;;;13.40;99.90;;;;;;5094299;28;20483;-80
2023/09/01 03:18:21;;;;;;;6.30;4.73;;;13.40;99.90;;;;;;5094769;28;20540;-79
2023/09/01 03:20:50;;;;;;;8.27;5.60;;;13.40;99.90;;;;;;5094394;28;20830;-80
2023/09/01 03:23:17;;;;;;;6.90;4.50;;;13.40;99.90;;;;;;5095104;28;20459;-79
2023/09/01 03:25:44;;;;;;;5.57;4.80;;;13.40;99.90;;;;;;5094185;28;20568;-79
2023/09/01 03:28:10;;;;;;;5.13;4.47;;;13.40;99.90;;;;;;5095012;28;20491;-80
2023/09/01 03:30:37;;;;;;;4.80;4.33;;;13.50;99.90;;;;;;5095156;28;20461;-81
2023/09/01 03:33:06;;;;;;;6.30;4.10;;;13.50;99.90;;;;;;5095908;28;20441;-81
2023/09/01 03:35:32;;;;;;;6.03;4.00;;;13.60;99.90;;;;;;5094773;28;20478;-81
2023/09/01 03:38:01;;;;;;;7.63;4.97;;;13.60;99.90;;;;;;5095972;28;20450;-81
2023/09/01 03:40:27;;;;;;;6.03;4.60;;;13.60;99.90;;;;;;5096109;28;20943;-81
2023/09/01 03:42:54;;;;;;;6.90;5.00;;;13.60;99.90;;;;;;5095853;28;20456;-81
2023/09/01 03:45:21;;;;;;;4.93;3.77;;;13.70;99.90;;;;;;5095043;28;20442;-81
2023/09/01 03:47:48;;;;;;;6.27;4.17;;;13.70;99.90;;;;;;5093819;28;20829;-81
2023/09/01 03:50:14;;;;;;;6.20;4.13;;;13.70;99.90;;;;;;5100737;28;20533;-81
2023/09/01 03:52:41;;;;;;;6.83;5.00;;;13.80;99.90;;;;;;5102519;28;20444;-81
2023/09/01 03:55:09;;;;;;;6.97;4.40;;;13.80;99.90;;;;;;5108193;28;20877;-81
2023/09/01 03:57:36;;;;;;;5.77;4.90;;;13.80;99.90;;;;;;5109289;28;20481;-80
2023/09/01 04:00:08;;;;;;;7.53;4.87;;;13.90;99.90;;;;;;5101515;28;20461;-79
2023/09/01 04:02:35;;;;;;;6.03;3.97;;;13.90;99.90;;;;;;5099490;28;20449;-80
2023/09/01 04:05:03;;;;;;;6.60;4.00;;;13.90;99.90;;;;;;5100378;28;20821;-81
2023/09/01 04:07:30;;;;;;;5.30;4.10;;;14.00;99.90;;;;;;5100815;28;20850;-80
2023/09/01 04:09:58;;;;;;;5.23;4.73;;;14.00;99.90;;;;;;5100744;28;20580;-81
2023/09/01 04:12:26;;;;;;;8.23;3.90;;;14.00;99.90;;;;;;5101506;28;20455;-81
2023/09/01 04:14:53;;;;;;;6.23;4.47;;;14.10;99.90;;;;;;5099704;28;20452;-81
2023/09/01 04:17:19;;;;;;;5.43;4.20;;;14.10;99.90;;;;;;5098103;28;20465;-82
2023/09/01 04:19:47;;;;;;;7.17;5.07;;;14.10;99.90;;;;;;5100416;28;20454;-81
2023/09/01 04:22:14;;;;;;;5.40;4.43;;;14.10;99.90;;;;;;5097122;28;20457;-82
2023/09/01 04:24:41;;;;;;;7.07;4.27;;;14.00;99.90;;;;;;5096256;28;20460;-81
2023/09/01 04:27:08;;;;;;;5.63;3.50;;;14.00;99.90;;;;;;5095572;28;20480;-81
2023/09/01 04:29:38;;;;;;;4.53;4.10;;;14.00;99.90;;;;;;5096502;28;20997;-82
2023/09/01 04:32:05;;;;;;;4.40;3.67;;;14.00;99.90;;;;;;5097371;28;20470;-82
2023/09/01 04:34:33;;;;;;;4.17;3.70;;;14.10;99.90;;;;;;5096978;28;20461;-82
2023/09/01 04:36:59;;;;;;;4.37;3.67;;;14.10;99.90;;;;;;5096687;28;20463;-81
2023/09/01 04:39:26;;;;;;;6.97;4.37;;;14.10;99.90;;;;;;5097717;28;20445;-82
2023/09/01 04:41:53;;;;;;;5.50;4.23;;;14.10;99.90;;;;;;5097421;28;20440;-81
2023/09/01 04:44:20;;;;;;;4.93;3.53;;;14.10;99.90;;;;;;5096891;28;20452;-82
2023/09/01 04:46:49;;;;;;;7.10;4.23;;;14.20;99.90;;;;;;5096351;28;20538;-82
2023/09/01 04:49:15;;;;;;;4.77;3.70;;;14.20;99.90;;;;;;5096789;28;20479;-81
2023/09/01 04:51:42;;;;;;;4.67;3.90;;;14.20;99.90;;;;;;5097361;28;20449;-82
2023/09/01 04:54:09;;;;;;;7.73;4.50;;;14.20;99.90;;;;;;5090758;28;20518;-79
2023/09/01 04:56:36;;;;;;;4.90;4.20;;;14.20;99.90;;;;;;5093384;28;20500;-83
2023/09/01 04:59:03;;;;;;;5.13;3.93;;;14.20;99.90;;;;;;5095862;28;20448;-81
2023/09/01 05:01:30;;;;;;;9.10;4.63;;;14.30;99.90;;;;;;5097239;28;20954;-81
2023/09/01 05:03:59;;;;;;;6.20;4.20;;;14.20;99.90;;;;;;5098017;28;20452;-81
2023/09/01 05:06:26;;;;;;;8.90;4.47;;;14.20;99.90;;;;;;5096176;28;20492;-81
2023/09/01 05:08:55;;;;;;;7.80;5.30;;;14.20;99.90;;;;;;5098661;28;20492;-81
2023/09/01 05:11:21;;;;;;;6.73;4.30;;;14.30;99.90;;;;;;5100836;28;20446;-78
2023/09/01 05:13:48;;;;;;;7.30;3.80;;;14.30;99.90;;;;;;5096823;28;20459;-79
2023/09/01 05:16:15;;;;;;;8.23;5.07;;;14.30;99.90;;;;;;5086250;28;20511;-81
2023/09/01 05:18:42;;;;;;;8.37;4.60;;;14.30;99.90;;;;;;5096452;28;20457;-79
2023/09/01 05:21:10;;;;;;;4.50;3.87;;;14.40;99.90;;;;;;5094560;28;20458;-80
2023/09/01 05:23:37;;;;;;;5.60;4.83;;;14.40;99.90;;;;;;5096497;28;20455;-84
2023/09/01 05:26:03;;;;;;;7.40;5.03;;;14.40;99.90;;;;;;5095595;28;20486;-81
2023/09/01 05:28:30;;;;;;;4.73;4.33;;;14.50;99.90;;;;;;5098396;28;20446;-80
2023/09/01 05:30:57;;;;;;;5.30;4.80;;;14.50;99.90;;;;;;5098090;28;20473;-80
2023/09/01 05:33:24;;;;;;;6.77;4.80;;;14.50;99.90;;;;;;5096909;28;20450;-80
2023/09/01 05:35:51;;;;;;;6.87;4.83;;;14.50;99.90;;;;;;5095734;28;20472;-81
2023/09/01 05:38:19;;;;;;;5.43;4.13;;;14.50;99.90;;;;;;5096533;28;20468;-79
2023/09/01 05:40:55;;;;;;;5.90;4.90;;;14.50;99.90;;;;;;5097827;28;20536;-79
2023/09/01 05:43:21;;;;;;;7.30;4.27;;;14.60;99.90;;;;;;5098320;28;20439;-82
2023/09/01 05:45:48;;;;;;;7.20;4.90;;;14.60;99.90;;;;;;5096940;28;20506;-81
2023/09/01 05:48:15;;;;;;;5.40;4.43;;;14.70;99.90;;;;;;5098132;28;20473;-82
2023/09/01 05:50:43;;;;;;;5.37;4.27;;;14.70;99.90;;;;;;5097677;28;20478;-80
2023/09/01 05:53:10;;;;;;;6.40;5.13;;;14.70;99.90;;;;;;5098162;28;20464;-81
2023/09/01 05:55:38;;;;;;;7.07;5.17;;;14.80;99.90;;;;;;5097115;28;20478;-81
2023/09/01 05:58:05;;;;;;;7.73;4.83;;;14.90;99.90;;;;;;5098693;28;20453;-80
2023/09/01 06:00:32;;;;;;;7.97;5.43;;;14.90;99.90;;;;;;5100606;28;20936;-81
2023/09/01 06:02:59;;;;;;;7.47;4.63;;;14.90;99.90;;;;;;5095638;28;20533;-82
2023/09/01 06:05:26;;;;;;;7.23;4.90;;;14.90;99.90;;;;;;5103290;28;20539;-80
2023/09/01 06:07:55;;;;;;;5.90;5.00;;;15.00;99.90;;;;;;5109402;28;20510;-82
2023/09/01 06:10:22;;;;;;;7.30;4.80;;;15.00;99.90;;;;;;5094367;28;20488;-80
2023/09/01 06:12:50;;;;;;;7.57;5.13;;;15.00;99.90;;;;;;5094813;28;20452;-79
2023/09/01 06:15:19;;;;;;;7.70;4.57;;;15.00;99.90;;;;;;5095224;28;20522;-80
2023/09/01 06:17:46;;;;;;;5.80;5.20;;;15.10;99.90;;;;;;5097339;28;20536;-83
2023/09/01 06:20:19;;;;;;;7.00;5.10;;;15.10;99.90;;;;;;5098367;28;21238;-82
2023/09/01 06:22:45;;;;;;;7.97;5.10;;;15.20;99.90;;;;;;5096819;28;20448;-80
2023/09/01 06:25:12;;;;;;;5.30;4.80;;;15.30;99.90;;;;;;5096569;28;20533;-80
2023/09/01 06:27:39;;;;;;;6.10;4.93;;;15.40;99.90;;;;;;5078877;22;20657;-82
2023/09/01 06:30:08;;;;;;;5.40;4.80;;;15.40;99.90;;;;;;5035098;28;20862;-82
2023/09/01 06:32:35;;;;;;;7.97;5.60;;;15.50;99.90;;;;;;5035168;28;20535;-82
2023/09/01 06:35:02;;;;;;;8.17;5.77;;;15.60;99.90;;;;;;5034000;28;20458;-81
2023/09/01 06:37:29;;;;;;;6.77;5.20;;;15.70;99.90;;;;;;5048541;28;20484;-82
2023/09/01 06:39:56;;;;;;;7.93;6.10;;;15.70;99.90;;;;;;5054707;28;20450;-82
2023/09/01 06:42:23;;;;;;;7.17;5.57;;;15.70;99.90;;;;;;5044722;28;20448;-82
2023/09/01 06:44:49;;;;;;;8.37;5.80;;;15.80;99.90;;;;;;5056604;28;20482;-82
2023/09/01 06:47:18;;;;;;;7.80;6.33;;;15.80;99.90;;;;;;5036458;28;20476;-83
2023/09/01 06:49:45;;;;;;;7.10;5.10;;;15.90;99.90;;;;;;5036598;28;20489;-83
2023/09/01 06:52:13;;;;;;;9.60;5.13;;;15.90;99.90;;;;;;5044802;28;20456;-81
2023/09/01 06:54:39;;;;;;;7.77;5.73;;;16.00;99.90;;;;;;5054192;28;20953;-81
2023/09/01 06:57:06;;;;;;;7.40;5.70;;;16.00;99.90;;;;;;5054192;28;20550;-81
2023/09/01 06:59:33;;;;;;;5.70;5.00;;;16.00;99.90;;;;;;5054112;28;20455;-81
2023/09/01 07:02:00;;;;;;;7.63;4.97;;;16.10;99.90;;;;;;5051214;28;20948;-80
2023/09/01 07:04:29;;;;;;;9.37;6.40;;;16.10;99.90;;;;;;5052822;28;20815;-82
2023/09/01 07:06:55;;;;;;;11.60;5.87;;;16.20;99.90;;;;;;5052074;28;20471;-81
2023/09/01 07:09:22;;;;;;;6.50;5.13;;;16.20;99.90;;;;;;5052935;28;20590;-83
2023/09/01 07:11:49;;;;;;;7.03;5.17;;;16.30;99.90;;;;;;5052877;28;20848;-81
2023/09/01 07:14:16;;;;;;;5.47;4.37;;;16.30;99.90;;;;;;5052143;28;20459;-81
2023/09/01 07:16:43;;;;;;;8.67;6.10;;;16.40;99.90;;;;;;5046193;28;20519;-81
2023/09/01 07:19:09;;;;;;;8.80;5.17;;;16.40;99.90;;;;;;5052102;28;20828;-85
2023/09/01 07:21:38;;;;;;;6.20;5.60;;;16.50;99.90;;;;;;5056380;28;20562;-81
2023/09/01 07:24:05;;;;;;;5.50;4.30;;;16.60;99.90;;;;;;5058118;28;20462;-81
2023/09/01 07:26:35;;;;;;;7.30;4.27;;;16.70;99.90;;;;;;5056679;28;20487;-86
2023/09/01 07:29:02;;;;;;;5.73;4.43;;;16.70;99.90;;;;;;5056462;28;20452;-83
2023/09/01 07:31:29;;;;;;;5.20;4.03;;;16.80;99.90;;;;;;5058029;28;20986;-83
2023/09/01 07:33:56;;;;;;;4.70;3.97;;;16.80;99.90;;;;;;5057218;28;20511;-82
2023/09/01 07:36:24;;;;;;;4.67;4.03;;;16.90;99.90;;;;;;5052218;28;20472;-81
2023/09/01 07:38:52;;;;;;;6.03;4.00;;;16.90;99.90;;;;;;5055782;28;20551;-81
2023/09/01 07:41:19;;;;;;;7.13;4.70;;;16.90;99.90;;;;;;5056897;28;20506;-84
2023/09/01 07:43:45;;;;;;;4.17;3.73;;;17.00;99.90;;;;;;5056495;28;20490;-81
2023/09/01 07:46:12;;;;;;;5.33;4.17;;;17.10;99.90;;;;;;5055181;28;20473;-82
2023/09/01 07:48:39;;;;;;;5.17;3.33;;;17.10;99.90;;;;;;5056245;28;20545;-84
2023/09/01 07:51:06;;;;;;;4.20;3.57;;;17.20;99.90;;;;;;5045319;28;20503;-82
2023/09/01 07:53:33;;;;;;;4.80;3.20;;;17.20;99.90;;;;;;5050512;28;20444;-82
2023/09/01 07:56:01;;;;;;;5.03;3.57;;;17.20;99.90;;;;;;5051626;28;20986;-82
2023/09/01 07:58:28;;;;;;;4.10;3.50;;;17.30;99.90;;;;;;5049491;28;20479;-82
2023/09/01 08:00:54;;;;;;;3.77;3.20;;;17.30;99.90;;;;;;5057310;28;20470;-81
2023/09/01 08:03:21;;;;;;;3.13;2.67;;;17.30;99.90;;;;;;5057387;28;20892;-81
2023/09/01 08:05:48;;;;;;;5.53;2.97;;;17.30;99.90;;;;;;5055116;28;20470;-84
2023/09/01 08:08:15;;;;;;;3.90;2.50;;;17.30;99.90;;;;;;5055717;28;20816;-81
2023/09/01 08:10:42;;;;;;;4.23;2.73;;;17.30;99.90;;;;;;5055786;28;20495;-84
2023/09/01 08:13:10;;;;;;;3.53;2.40;;;17.30;99.90;;;;;;5057292;28;20488;-82
2023/09/01 08:15:37;;;;;;;6.50;2.50;;;17.30;99.90;;;;;;5056488;28;20972;-82
2023/09/01 08:18:05;;;;;;;4.00;3.43;;;17.30;99.90;;;;;;5051972;28;20475;-84
2023/09/01 08:20:32;;;;;;;9.40;3.60;;;17.30;99.90;;;;;;5054336;28;20454;-85
2023/09/01 08:22:59;;;;;;;4.20;3.27;;;17.30;99.90;;;;;;5056492;28;20448;-83
2023/09/01 08:25:26;;;;;;;6.83;3.90;;;17.40;99.90;;;;;;5056035;28;20463;-83
2023/09/01 08:27:53;;;;;;;3.80;3.40;;;17.40;99.90;;;;;;5048049;28;20589;-83
2023/09/01 08:30:21;;;;;;;6.10;3.53;;;17.40;99.90;;;;;;5062162;28;20497;-80
2023/09/01 08:32:48;;;;;;;3.50;2.83;;;17.40;99.90;;;;;;5054240;28;20489;-83
2023/09/01 08:35:15;;;;;;;5.00;3.40;;;17.50;99.90;;;;;;5054429;28;20887;-84
2023/09/01 08:37:42;;;;;;;4.37;2.70;;;17.60;99.90;;;;;;5050884;28;20520;-83
2023/09/01 08:40:10;;;;;;;7.17;3.13;;;17.60;99.90;;;;;;5057708;28;20731;-84
2023/09/01 08:42:44;;;;;;;6.10;3.00;;;17.70;99.90;;;;;;5069598;28;20462;-83
2023/09/01 08:45:12;;;;;;;4.37;2.60;;;17.70;99.90;;;;;;5073897;28;20459;-84
2023/09/01 08:47:45;;;;;;;3.70;2.47;;;17.70;99.90;;;;;;5051357;28;20474;-83
2023/09/01 08:50:12;;;;;;;3.00;2.33;;;17.70;99.90;;;;;;5057904;28;20475;-83
2023/09/01 08:52:41;;;;;;;3.60;2.87;;;17.70;99.90;;;;;;5056423;28;20479;-83
2023/09/01 08:55:09;;;;;;;3.60;3.17;;;17.80;99.90;;;;;;5075624;28;21046;-84
2023/09/01 08:57:37;;;;;;;2.30;2.10;;;17.80;99.90;;;;;;5077183;28;20470;-83
2023/09/01 09:00:05;;;;;;;3.37;2.67;;;17.80;99.90;;;;;;5076900;28;20954;-84
2023/09/01 09:02:32;;;;;;;2.87;2.37;;;17.90;99.90;;;;;;5061064;28;20464;-84
2023/09/01 09:05:00;;;;;;;3.17;2.67;;;17.90;99.90;;;;;;5058386;28;20462;-83
2023/09/01 09:07:27;;;;;;;4.37;2.50;;;18.00;99.90;;;;;;5073799;28;20564;-84
2023/09/01 09:09:55;;;;;;;3.13;2.20;;;18.00;99.90;;;;;;5058601;28;20505;-83
2023/09/01 09:12:23;;;;;;;3.17;2.50;;;18.10;99.90;;;;;;5060140;28;20452;-84
2023/09/01 09:14:52;;;;;;;3.10;2.20;;;18.10;99.90;;;;;;5057501;28;20828;-83
2023/09/01 09:17:21;;;;;;;2.93;2.13;;;18.10;99.90;;;;;;5058046;28;20486;-83
2023/09/01 09:19:53;;;;;;;2.50;2.20;;;18.00;99.90;;;;;;5058610;28;20475;-83
2023/09/01 09:22:22;;;;;;;3.67;2.70;;;18.10;99.90;;;;;;5057350;28;20483;-83
2023/09/01 09:24:49;;;;;;;3.30;2.00;;;18.00;99.90;;;;;;5047826;28;21026;-83
2023/09/01 09:27:16;;;;;;;2.80;2.47;;;17.80;99.90;;;;;;5056782;28;20483;-82
2023/09/01 09:29:45;;;;;;;4.77;2.13;;;17.90;99.90;;;;;;5055990;28;21041;-83
2023/09/01 09:32:23;;;;;;;3.43;1.80;;;17.80;99.90;;;;;;5044080;28;20448;-82
2023/09/01 09:35:08;;;;;;;3.17;2.10;;;17.70;99.90;;;;;;5051134;28;20449;-82
2023/09/01 09:37:37;;;;;;;2.40;1.97;;;17.70;99.90;;;;;;5056831;28;20467;-82
2023/09/01 09:40:13;;;;;;;2.93;2.53;;;17.70;99.90;;;;;;5059351;28;20447;-83
2023/09/01 09:42:41;;;;;;;3.60;2.40;;;17.70;99.90;;;;;;5077253;28;20499;-84
2023/09/01 09:45:22;;;;;;;4.73;2.83;;;17.70;99.90;;;;;;5079613;28;20493;-82
2023/09/01 09:47:50;;;;;;;2.63;2.43;;;17.60;99.90;;;;;;5069298;28;20473;-82
2023/09/01 09:50:18;;;;;;;3.27;2.53;;;17.60;99.90;;;;;;5058207;28;20494;-83
2023/09/01 09:52:49;;;;;;;6.20;3.13;;;17.50;99.90;;;;;;5058357;28;20458;-82
2023/09/01 09:55:25;;;;;;;3.73;2.60;;;17.50;99.90;;;;;;5058179;28;20447;-83
2023/09/01 09:57:52;;;;;;;3.40;2.50;;;17.50;99.90;;;;;;5057260;28;20538;-81
2023/09/01 10:00:21;;;;;;;4.47;2.30;;;17.40;99.90;;;;;;5058491;28;20439;-84
2023/09/01 10:02:53;;;;;;;3.77;2.57;;;17.40;99.90;;;;;;5048871;28;20455;-82
2023/09/01 10:05:23;;;;;;;3.80;2.77;;;17.40;99.90;;;;;;5053169;28;20488;-82
2023/09/01 10:07:52;;;;;;;5.20;3.50;;;17.40;99.90;;;;;;5056554;28;20479;-82
2023/09/01 10:10:20;;;;;;;4.63;3.00;;;17.40;99.90;;;;;;5055670;28;20483;-84
2023/09/01 10:12:47;;;;;;;3.93;2.50;;;17.40;99.90;;;;;;5056837;28;20454;-84
2023/09/01 10:15:15;;;;;;;5.20;3.33;;;17.40;99.90;;;;;;5043694;28;20478;-84
2023/09/01 10:17:44;;;;;;;3.37;2.97;;;17.30;99.90;;;;;;5055444;28;20854;-85
2023/09/01 10:20:12;;;;;;;3.83;2.50;;;17.30;99.90;;;;;;5051298;28;20459;-84
2023/09/01 10:22:39;;;;;;;3.20;2.80;;;17.30;99.90;;;;;;5057876;28;20475;-84
2023/09/01 10:25:19;;;;;;;3.60;2.70;;;17.30;99.90;;;;;;5061141;28;20462;-83
2023/09/01 10:28:03;;;;;;;3.47;2.70;;;17.30;99.90;;;;;;5064026;28;20488;-86
2023/09/01 10:30:32;;;;;;;5.13;2.60;;;17.30;99.90;;;;;;5053769;28;20481;-85
2023/09/01 10:33:12;;;;;;;2.87;2.57;;;17.30;99.90;;;;;;5067850;28;20537;-88
2023/09/01 10:35:47;;;;;;;3.83;3.33;;;17.30;99.90;;;;;;5054874;28;20498;-87
2023/09/01 10:38:17;;;;;;;7.20;4.23;;;17.30;99.90;;;;;;5076092;28;20438;-85
2023/09/01 10:40:47;;;;;;;7.50;4.67;;;17.30;99.90;;;;;;5074741;28;20573;-82
2023/09/01 10:43:15;;;;;;;8.83;4.50;;;17.30;99.90;;;;;;5074777;28;20463;-82
2023/09/01 10:45:42;;;;;;;4.23;3.50;;;17.30;99.90;;;;;;5072798;28;20456;-81
2023/09/01 10:48:12;;;;;;;3.93;3.13;;;17.30;99.90;;;;;;5055301;28;20473;-84
2023/09/01 10:50:41;;;;;;;4.00;2.73;;;17.30;99.90;;;;;;5072163;28;20493;-83
2023/09/01 10:53:31;;;;;;;5.53;3.27;;;17.30;99.90;;;;;;5046486;28;20465;-84
2023/09/01 10:56:10;;;;;;;3.10;2.70;;;17.40;99.90;;;;;;5050205;28;20480;-82
2023/09/01 10:58:46;;;;;;;4.73;3.23;;;17.40;99.90;;;;;;5053391;28;20452;-84
2023/09/01 11:01:29;;;;;;;3.43;3.00;;;17.40;99.90;;;;;;5024050;28;20469;-80
2023/09/01 11:03:56;;;;;;;3.90;3.17;;;17.40;99.90;;;;;;5050708;28;20468;-82
2023/09/01 11:06:24;;;;;;;4.90;3.20;;;17.50;99.90;;;;;;5054410;28;20475;-84
2023/09/01 11:09:00;;;;;;;3.03;2.60;;;17.50;99.90;;;;;;5055832;28;20587;-82
2023/09/01 11:11:29;;;;;;;3.53;2.40;;;17.50;99.90;;;;;;5055862;28;21199;-83
2023/09/01 11:14:01;;;;;;;2.40;2.10;;;17.60;99.90;;;;;;5064345;28;20533;-82
2023/09/01 11:16:28;;;;;;;3.60;2.17;;;17.60;99.90;;;;;;5064307;28;20481;-82
2023/09/01 11:19:02;;;;;;;4.67;2.80;;;17.60;99.90;;;;;;5049606;28;21018;-81
2023/09/01 11:21:29;;;;;;;3.07;2.20;;;17.70;99.90;;;;;;5050762;28;20524;-82
2023/09/01 11:24:00;;;;;;;2.30;1.93;;;17.70;99.90;;;;;;5049167;28;20551;-81
2023/09/01 11:26:29;;;;;;;3.50;2.43;;;17.70;99.90;;;;;;5046870;28;20944;-82
2023/09/01 11:28:56;;;;;;;2.80;2.00;;;17.60;99.90;;;;;;5048017;28;20887;-81
2023/09/01 11:31:23;;;;;;;2.90;1.77;;;17.60;99.90;;;;;;5052579;28;20577;-81
2023/09/01 11:33:53;;;;;;;2.20;1.77;;;17.70;99.90;;;;;;5052278;28;20578;-80
2023/09/01 11:36:21;;;;;;;3.60;2.10;;;17.70;99.90;;;;;;5051275;28;20475;-81
2023/09/01 11:38:48;;;;;;;5.13;4.00;;;17.80;99.90;;;;;;5061061;28;20880;-81
2023/09/01 11:41:18;;;;;;;3.10;2.57;;;17.80;99.90;;;;;;5069607;28;20527;-83
2023/09/01 11:43:47;;;;;;;3.13;2.23;;;17.90;99.90;;;;;;5052490;28;20459;-81
2023/09/01 11:46:14;;;;;;;2.60;2.40;;;17.90;99.90;;;;;;5051002;28;20558;-82
2023/09/01 11:48:41;;;;;;;3.10;2.37;;;17.90;99.90;;;;;;5052232;28;20538;-81
2023/09/01 11:51:09;;;;;;;3.57;2.33;;;18.00;99.90;;;;;;5049879;28;20586;-81
2023/09/01 11:53:36;;;;;;;2.70;2.03;;;18.10;99.90;;;;;;5066721;28;20452;-83
2023/09/01 11:56:19;;;;;;;2.83;2.17;;;18.10;99.90;;;;;;5041046;28;20555;-82
2023/09/01 11:58:47;;;;;;;3.07;1.57;;;18.10;99.90;;;;;;5054294;28;20466;-81
2023/09/01 12:01:16;;;;;;;4.03;1.70;;;18.10;99.90;;;;;;5054986;28;20535;-82
2023/09/01 12:03:45;;;;;;;3.60;1.80;;;18.10;99.90;;;;;;5053508;28;20485;-82
2023/09/01 12:06:16;;;;;;;2.20;1.60;;;18.10;99.90;;;;;;5051622;28;20475;-82
2023/09/01 12:08:43;;;;;;;2.53;2.20;;;18.10;99.90;;;;;;5051189;28;21102;-81
2023/09/01 12:11:10;;;;;;;2.90;1.43;;;18.20;99.90;;;;;;5057355;28;20495;-82
2023/09/01 12:13:37;;;;;;;2.83;1.63;;;18.20;99.90;;;;;;5057762;28;20457;-81
2023/09/01 12:16:05;;;;;;;2.20;1.70;;;18.10;99.90;;;;;;5055944;28;20476;-81
2023/09/01 12:18:35;;;;;;;2.13;1.40;;;18.20;99.90;;;;;;5057527;28;20455;-81
2023/09/01 12:21:06;;;;;;;3.43;1.90;;;18.20;99.90;;;;;;5057671;28;20458;-85
2023/09/01 12:23:34;;;;;;;2.67;1.80;;;18.20;99.90;;;;;;5057952;28;20451;-82
2023/09/01 12:26:02;;;;;;;2.30;1.40;;;18.30;99.90;;;;;;5054639;28;20470;-82
2023/09/01 12:28:30;;;;;;;3.87;1.37;;;18.30;99.90;;;;;;5071926;22;20499;-81
2023/09/01 12:30:58;;;;;;;2.17;1.40;;;18.30;99.90;;;;;;5059877;28;20593;-82
2023/09/01 12:33:27;;;;;;;1.73;1.43;;;18.30;99.90;;;;;;5069814;28;20502;-81
2023/09/01 12:35:54;;;;;;;2.57;1.93;;;18.30;99.90;;;;;;5062794;28;20487;-79
2023/09/01 12:38:21;;;;;;;2.53;1.60;;;18.30;99.90;;;;;;5056703;28;20477;-79
2023/09/01 12:40:49;;;;;;;1.93;1.53;;;18.30;99.90;;;;;;5054336;28;20454;-81
2023/09/01 12:43:16;;;;;;;2.00;1.30;;;18.40;99.90;;;;;;5055029;28;20980;-81
2023/09/01 12:45:43;;;;;;;2.60;1.93;;;18.40;99.90;;;;;;5056173;28;20547;-83
2023/09/01 12:48:10;;;;;;;1.90;1.50;;;18.40;99.90;;;;;;5056242;28;20468;-82
2023/09/01 12:50:38;;;;;;;2.40;2.00;;;18.40;99.90;;;;;;5055412;28;20455;-82